Time;durP1;ratioP1;P1;durP2;ratioP2;P2;SDS_P1;SDS_P2;PMS_P1;PMS_P2;Temp;Humidity;BMP_temperature;BMP_pressure;BME280_temperature;BME280_humidity;BME280_pressure;Samples;Min_cycle;Max_cycle;Signal;HPM_P1;HPM_P2
2021/12/04 00:01:28;;;;;;;6.32;2.75;;;;;;;20.28;45.28;95960.63;10491575;28;20055;-56
2021/12/04 00:06:49;;;;;;;5.57;2.58;;;;;;;20.27;45.27;95953.66;10509577;28;20048;-56
2021/12/04 00:12:08;;;;;;;5.88;2.70;;;;;;;20.26;45.18;95943.97;10474530;28;20056;-56
2021/12/04 00:17:28;;;;;;;5.78;2.55;;;;;;;20.24;45.17;95932.72;10485642;28;20049;-56
2021/12/04 00:22:48;;;;;;;6.75;2.85;;;;;;;20.23;45.08;95906.81;10478851;28;20505;-56
2021/12/04 00:28:10;;;;;;;5.82;2.60;;;;;;;20.21;45.07;95900.97;10497393;28;20028;-56
2021/12/04 00:33:31;;;;;;;6.40;2.65;;;;;;;20.20;44.90;95895.91;10473942;28;20400;-56
2021/12/04 00:50:08;;;;;;;7.27;2.80;;;;;;;20.14;44.90;95865.63;10467393;28;20056;-56
2021/12/04 00:55:28;;;;;;;6.50;2.42;;;;;;;20.12;44.74;95859.78;10486899;28;20319;-56
2021/12/04 01:00:47;;;;;;;5.32;2.30;;;;;;;20.12;44.80;95862.50;10453347;28;20048;-56
2021/12/04 01:06:07;;;;;;;4.80;2.17;;;;;;;20.09;44.83;95852.38;10453758;28;20052;-56
2021/12/04 01:11:27;;;;;;;4.45;2.03;;;;;;;20.07;44.66;95850.03;10470646;28;20422;-56
2021/12/04 01:16:47;;;;;;;3.72;2.20;;;;;;;20.05;44.62;95835.28;10484637;28;20040;-56
2021/12/04 01:22:07;;;;;;;4.78;2.35;;;;;;;20.04;44.68;95828.31;10484775;28;20032;-57
2021/12/04 01:27:26;;;;;;;3.72;2.00;;;;;;;20.02;44.57;95815.16;10449322;28;20053;-56
2021/12/04 01:32:46;;;;;;;3.40;2.00;;;;;;;20.01;44.61;95793.88;10466643;28;20060;-56
2021/12/04 01:38:05;;;;;;;3.45;1.83;;;;;;;20.00;44.59;95784.22;10458383;28;20045;-56
2021/12/04 01:43:25;;;;;;;4.32;1.85;;;;;;;19.98;44.53;95770.25;10484965;28;20097;-56
2021/12/04 01:48:44;;;;;;;4.22;2.00;;;;;;;19.95;44.57;95764.41;10489491;28;20484;-55
2021/12/04 01:54:05;;;;;;;4.32;1.90;;;;;;;19.95;44.41;95759.00;10467240;28;20427;-56
2021/12/04 01:59:25;;;;;;;4.90;1.85;;;;;;;19.92;44.47;95751.59;10474929;28;20095;-56
2021/12/04 02:04:45;;;;;;;5.13;2.05;;;;;;;19.91;44.48;95728.38;10450387;28;20052;-56
2021/12/04 02:10:06;;;;;;;3.75;1.60;;;;;;;19.90;44.54;95721.44;10466713;28;20655;-56
2021/12/04 02:15:26;;;;;;;3.70;2.05;;;;;;;19.87;44.34;95713.25;10477690;28;20056;-56
2021/12/04 02:20:47;;;;;;;5.75;1.88;;;;;;;19.85;44.29;95708.19;10477876;28;20048;-56
2021/12/04 02:26:07;;;;;;;3.58;1.95;;;;;;;19.84;44.27;95700.44;10465658;28;20056;-57
2021/12/04 02:31:27;;;;;;;2.75;1.50;;;;;;;19.82;44.37;95698.09;10467652;28;20041;-56
2021/12/04 02:36:46;;;;;;;2.58;1.67;;;;;;;19.81;44.23;95685.69;10487471;28;20049;-56
2021/12/04 02:42:06;;;;;;;3.67;1.77;;;;;;;19.79;44.39;95685.28;10459461;28;20090;-56
2021/12/04 02:47:27;;;;;;;4.00;1.63;;;;;;;19.77;44.32;95679.44;10456206;28;20049;-56
2021/12/04 02:52:47;;;;;;;2.78;1.55;;;;;;;19.76;44.20;95667.06;10464853;28;20056;-56
2021/12/04 02:58:06;;;;;;;2.97;1.65;;;;;;;19.75;44.14;95665.50;10469434;28;20098;-56
2021/12/04 03:03:27;;;;;;;3.47;1.60;;;;;;;19.73;44.17;95665.06;10469724;28;20036;-56
2021/12/04 03:08:46;;;;;;;3.35;1.50;;;;;;;19.72;44.12;95660.81;10473056;28;20064;-56
2021/12/04 03:14:06;;;;;;;2.97;1.63;;;;;;;19.70;44.22;95652.25;10455513;28;20041;-56
2021/12/04 03:19:27;;;;;;;1.83;1.30;;;;;;;19.69;44.16;95647.97;10459245;28;20052;-56
2021/12/04 03:24:47;;;;;;;2.58;1.58;;;;;;;19.67;44.11;95629.41;10464099;28;20056;-57
2021/12/04 03:30:17;;;;;;;2.63;1.52;;;;;;;19.66;44.23;95633.25;10462904;28;20436;-57
2021/12/04 03:41:06;;;;;;;2.20;1.15;;;;;;;19.63;43.98;95603.44;10480523;28;20067;-56
2021/12/04 03:46:26;;;;;;;2.03;1.25;;;;;;;19.61;44.08;95605.72;10471439;28;20059;-55
2021/12/04 03:51:45;;;;;;;2.80;1.30;;;;;;;19.59;44.05;95589.84;10470393;28;20044;-56
2021/12/04 03:57:06;;;;;;;2.53;1.50;;;;;;;19.59;44.03;95583.69;10467560;28;20110;-56
2021/12/04 04:02:26;;;;;;;2.35;1.30;;;;;;;19.57;44.14;95578.63;10496904;28;20044;-56
2021/12/04 04:07:46;;;;;;;2.85;1.25;;;;;;;19.56;44.14;95585.94;10488273;28;20663;-56
2021/12/04 04:13:08;;;;;;;1.70;1.27;;;;;;;19.53;43.99;95589.34;10472266;28;20124;-56
2021/12/04 04:18:31;;;;;;;2.03;1.30;;;;;;;19.53;43.82;95589.34;10458598;28;20132;-56
2021/12/04 04:23:50;;;;;;;3.80;1.40;;;;;;;19.51;44.02;95588.16;10479515;28;20056;-57
2021/12/04 04:29:10;;;;;;;2.33;1.33;;;;;;;19.51;43.90;95588.91;10480841;28;20673;-56
2021/12/04 04:34:33;;;;;;;2.20;1.38;;;;;;;19.47;43.85;95579.97;10472268;28;20048;-57
2021/12/04 05:13:17;;;;;;;1.58;1.00;;;;;;;19.38;43.85;95556.97;10453726;28;20098;-56
2021/12/04 05:18:40;;;;;;;1.52;1.05;;;;;;;19.37;43.83;95561.63;10464832;28;20059;-56
2021/12/04 05:24:00;;;;;;;3.40;1.17;;;;;;;19.38;43.83;95554.28;10463614;28;20060;-56
2021/12/04 05:29:19;;;;;;;1.67;1.00;;;;;;;19.37;44.13;95550.81;10465317;28;20053;-56
2021/12/04 05:34:39;;;;;;;1.23;0.90;;;;;;;19.38;44.01;95559.69;10466574;28;20053;-56
2021/12/04 05:39:58;;;;;;;1.75;1.10;;;;;;;19.39;43.90;95548.53;10469289;28;20056;-56
2021/12/04 05:45:23;;;;;;;1.73;1.10;;;;;;;19.40;43.91;95558.19;10480204;28;20694;-57
2021/12/04 05:56:08;;;;;;;1.48;1.00;;;;;;;19.44;43.81;95548.25;10466396;28;20048;-57
2021/12/04 06:01:28;;;;;;;2.60;1.05;;;;;;;19.46;43.85;95556.00;10469560;28;20057;-56
2021/12/04 06:06:48;;;;;;;1.50;0.95;;;;;;;19.50;44.27;95556.84;10489302;28;20029;-56
2021/12/04 06:12:08;;;;;;;1.17;1.08;;;;;;;19.52;44.33;95552.69;10462172;28;20443;-55
2021/12/04 06:17:29;;;;;;;1.35;0.88;;;;;;;19.56;44.33;95553.53;10472363;28;20060;-55
2021/12/04 06:22:48;;;;;;;1.50;1.15;;;;;;;19.59;44.41;95565.53;10483892;28;20415;-56
2021/12/04 06:28:08;;;;;;;1.02;0.80;;;;;;;19.62;44.22;95561.34;10476759;28;20048;-56
2021/12/04 06:33:28;;;;;;;1.15;0.95;;;;;;;19.62;44.17;95548.63;10480165;28;20036;-56
2021/12/04 06:38:48;;;;;;;1.75;1.00;;;;;;;19.65;44.33;95537.09;10454506;28;20083;-56
2021/12/04 06:44:08;;;;;;;0.88;0.80;;;;;;;19.68;44.48;95544.50;10466748;28;20048;-56
2021/12/04 06:49:32;;;;;;;1.70;1.08;;;;;;;19.68;44.06;95533.72;10489207;28;20037;-57
2021/12/04 06:54:56;;;;;;;1.45;1.10;;;;;;;19.69;44.18;95534.47;10473200;28;20044;-56
2021/12/04 07:00:16;;;;;;;1.48;0.90;;;;;;;19.69;43.91;95534.47;10479166;28;20114;-56
2021/12/04 07:05:35;;;;;;;1.52;0.90;;;;;;;19.70;43.97;95530.66;10450797;28;20049;-56
2021/12/04 07:10:55;;;;;;;2.75;1.00;;;;;;;19.70;43.89;95525.25;10467751;28;20049;-61
2021/12/04 07:16:17;;;;;;;1.48;0.80;;;;;;;19.71;43.99;95519.50;10458475;28;20044;-56
2021/12/04 07:21:37;;;;;;;2.55;1.00;;;;;;;19.74;44.03;95512.63;10466455;28;20052;-57
2021/12/04 07:26:57;;;;;;;3.00;0.90;;;;;;;19.75;43.80;95495.25;10485900;28;20032;-57
2021/12/04 07:32:16;;;;;;;1.23;0.90;;;;;;;19.77;43.91;95487.56;10472259;28;20047;-56
2021/12/04 07:37:36;;;;;;;0.93;0.80;;;;;;;19.81;43.82;95484.94;10468068;28;20045;-57
2021/12/04 07:42:56;;;;;;;1.50;0.80;;;;;;;19.83;43.69;95471.84;10474101;28;20048;-56
2021/12/04 07:48:16;;;;;;;1.13;0.80;;;;;;;19.85;43.53;95470.34;10470775;28;20044;-57
2021/12/04 07:53:35;;;;;;;2.00;0.82;;;;;;;19.88;43.55;95458.06;10471612;28;20515;-56
2021/12/04 07:58:55;;;;;;;1.10;1.00;;;;;;;19.91;43.58;95452.69;10483566;28;20079;-56
2021/12/04 08:04:14;;;;;;;1.15;0.90;;;;;;;19.95;43.46;95447.34;10467066;28;20416;-56
2021/12/04 08:09:34;;;;;;;1.70;0.80;;;;;;;19.97;43.30;95439.66;10492271;28;20040;-56
2021/12/04 08:14:54;;;;;;;1.95;1.00;;;;;;;20.01;43.33;95445.16;10485331;28;20111;-56
2021/12/04 08:20:15;;;;;;;1.08;0.77;;;;;;;20.04;43.19;95439.81;10483422;28;20135;-57
2021/12/04 08:25:35;;;;;;;2.17;0.80;;;;;;;20.08;43.06;95439.88;10476741;28;20056;-56
2021/12/04 08:30:55;;;;;;;0.93;0.70;;;;;;;20.12;42.92;95430.66;10477439;28;20071;-56
2021/12/04 08:36:14;;;;;;;1.23;0.70;;;;;;;20.16;42.82;95438.84;10483144;28;20059;-56
2021/12/04 08:41:34;;;;;;;1.77;1.02;;;;;;;20.22;42.84;95431.22;10491757;28;20052;-56
2021/12/04 08:46:54;;;;;;;1.20;1.00;;;;;;;20.25;42.75;95425.88;10501300;28;20059;-55
2021/12/04 08:52:17;;;;;;;1.90;0.82;;;;;;;20.29;42.66;95432.13;10496149;28;20041;-55
2021/12/04 08:57:36;;;;;;;3.63;0.90;;;;;;;20.33;43.08;95419.44;10488571;28;20636;-55
2021/12/04 09:02:57;;;;;;;3.08;1.02;;;;;;;20.37;43.43;95416.00;10477670;28;20053;-56
2021/12/04 09:08:18;;;;;;;1.83;1.42;;;;;;;20.38;38.56;95420.25;10458943;28;20515;-55
2021/12/04 09:13:39;;;;;;;3.85;1.20;;;;;;;20.10;37.23;95415.97;10454663;28;20095;-55
2021/12/04 09:18:58;;;;;;;2.38;1.70;;;;;;;20.23;41.05;95409.22;10471879;28;20048;-55
2021/12/04 09:24:24;;;;;;;7.28;1.50;;;;;;;20.35;40.97;95403.63;10465097;28;20602;-56
2021/12/04 09:30:00;;;;;;;5.25;1.60;;;;;;;20.44;40.92;95403.34;10471789;28;20074;-54
2021/12/04 10:36:32;;;;;;;13.57;4.15;;;;;;;21.07;36.95;95347.81;10487437;28;20053;-55
2021/12/04 10:41:54;;;;;;;7.07;3.85;;;;;;;21.13;37.28;95324.66;10486810;28;20049;-56
2021/12/04 10:47:21;;;;;;;10.75;4.25;;;;;;;21.16;37.63;95303.41;10448601;28;20056;-55
2021/12/04 11:03:37;;;;;;;9.77;4.30;;;;;;;21.23;39.21;95295.34;10512254;28;20036;-55
2021/12/04 11:47:58;;;;;;;10.68;5.47;;;;;;;21.06;36.24;95248.75;10470436;28;20040;-55
2021/12/04 11:53:19;;;;;;;6.53;5.82;;;;;;;20.62;30.29;95238.63;10463235;28;20115;-55
2021/12/04 11:58:45;;;;;;;7.88;5.22;;;;;;;20.71;35.36;95227.50;10491123;28;20041;-55
2021/12/04 12:04:07;;;;;;;8.23;5.50;;;;;;;20.84;37.63;95220.69;10475993;28;20059;-54
2021/12/04 12:09:28;;;;;;;10.25;5.13;;;;;;;20.84;37.63;95220.69;10452784;28;20053;-55
2021/12/04 12:14:54;;;;;;;7.65;4.90;;;;;;;21.01;40.13;95192.25;10453988;28;20045;-55
2021/12/04 12:20:21;;;;;;;6.53;4.10;;;;;;;21.07;40.22;95182.63;10477896;28;20044;-54
2021/12/04 12:31:58;;;;;;;7.53;5.28;;;;;;;21.22;36.29;95172.69;10481568;28;20110;-54
2021/12/04 12:37:24;;;;;;;11.00;6.60;;;;;;;21.21;36.89;95173.84;8661379;28;10001547;-55
2021/12/04 12:42:43;;;;;;;8.45;5.78;;;;;;;21.21;37.25;95167.66;10363311;28;20038;-54
2021/12/04 12:48:05;;;;;;;8.60;5.78;;;;;;;21.22;37.92;95158.38;10358802;28;20124;-55
2021/12/04 12:53:26;;;;;;;7.97;5.20;;;;;;;21.20;38.36;95161.47;10365018;28;20058;-54
2021/12/04 12:58:59;;;;;;;8.27;5.10;;;;;;;21.20;37.29;95150.63;10364378;28;20045;-54
2021/12/04 13:16:29;;;;;;;6.72;5.13;;;;;;;21.27;37.03;95155.34;10362219;28;20473;-55
2021/12/04 13:21:52;;;;;;;7.30;4.57;;;;;;;21.25;38.29;95142.16;10361386;28;20080;-54
2021/12/04 13:32:38;;;;;;;7.47;4.82;;;;;;;21.26;38.81;95143.72;10362659;28;20084;-56
2021/12/04 13:38:01;;;;;;;7.00;4.82;;;;;;;21.28;38.95;95135.22;10364905;28;20096;-54
2021/12/04 13:43:22;;;;;;;6.70;4.45;;;;;;;21.29;39.17;95136.78;10376271;28;20049;-54
2021/12/04 13:48:42;;;;;;;5.28;4.00;;;;;;;21.31;39.39;95129.06;10362841;28;20054;-55
2021/12/04 13:54:03;;;;;;;5.97;4.25;;;;;;;21.33;39.52;95141.06;10372344;28;20065;-54
2021/12/04 13:59:24;;;;;;;4.82;3.95;;;;;;;21.36;39.73;95139.53;10369982;28;20039;-54
2021/12/04 14:04:44;;;;;;;4.95;4.15;;;;;;;21.38;39.82;95137.22;10362564;28;20050;-54
2021/12/04 14:10:13;;;;;;;6.10;4.20;;;;;;;21.41;39.94;95125.63;10369684;28;20041;-55
2021/12/04 14:15:33;;;;;;;5.53;4.28;;;;;;;21.41;37.97;95133.00;10344512;28;20046;-54
2021/12/04 14:20:54;;;;;;;5.95;4.50;;;;;;;21.41;37.97;95133.00;10329112;28;20405;-54
2021/12/04 14:26:15;;;;;;;7.38;4.78;;;;;;;21.41;37.97;95133.00;10324187;28;20442;-54
2021/12/04 14:31:35;;;;;;;6.25;4.10;;;;;;;21.52;39.49;95123.81;10330984;28;20584;-54
2021/12/04 14:37:04;;;;;;;5.65;4.30;;;;;;;21.52;39.49;95123.81;10324625;28;20076;-53
2021/12/04 14:42:27;;;;;;;4.38;3.90;;;;;;;21.59;39.79;95119.59;10346635;28;20037;-55
2021/12/04 14:47:54;;;;;;;4.65;4.00;;;;;;;21.64;39.89;95127.34;10375215;28;20104;-55
2021/12/04 14:53:16;;;;;;;5.45;4.45;;;;;;;21.66;39.89;95120.41;10351947;28;20398;-54
2021/12/04 14:58:35;;;;;;;5.53;4.03;;;;;;;21.70;39.86;95125.88;10374832;28;20511;-54
2021/12/04 15:03:59;;;;;;;5.88;4.25;;;;;;;21.73;39.80;95125.84;10418446;28;20489;-55
2021/12/04 15:09:18;;;;;;;5.55;3.50;;;;;;;21.76;39.95;95132.47;10411424;28;20038;-55
2021/12/04 15:14:38;;;;;;;4.72;3.65;;;;;;;21.80;39.90;95129.78;10381645;28;20456;-56
2021/12/04 15:20:10;;;;;;;4.70;3.78;;;;;;;21.83;39.88;95126.31;10388897;28;20044;-55
2021/12/04 15:25:32;;;;;;;3.75;3.42;;;;;;;21.85;39.75;95124.75;10426376;28;20056;-55
2021/12/04 15:30:55;;;;;;;4.65;3.80;;;;;;;21.88;39.68;95139.50;10400102;28;20054;-55
2021/12/04 15:36:28;;;;;;;4.95;3.63;;;;;;;21.91;39.58;95131.41;10396371;28;20057;-55
2021/12/04 15:42:09;;;;;;;6.22;3.78;;;;;;;-146.19;100.00;65364.44;10402306;28;20484;-56
2021/12/04 15:48:01;;;;;;;6.55;4.43;;;;;;;-146.19;100.00;65364.44;10385406;28;20041;-55
2021/12/04 15:53:22;;;;;;;4.82;3.60;;;;;;;-146.19;100.00;65364.44;10389015;28;20037;-55
2021/12/04 15:58:41;;;;;;;8.75;7.80;;;;;;;-146.19;100.00;65364.44;10392491;28;20038;-55
2021/12/04 16:04:01;;;;;;;29.27;22.75;;;;;;;18.89;27.81;95110.28;10404854;28;20072;-54
2021/12/04 16:09:26;;;;;;;23.35;17.35;;;;;;;18.62;31.23;95098.59;10406613;28;20369;-56
2021/12/04 16:14:51;;;;;;;16.50;12.45;;;;;;;19.95;34.00;95091.38;10397233;28;20063;-55
2021/12/04 16:20:13;;;;;;;23.15;12.15;;;;;;;20.69;34.15;95080.97;10442435;28;20488;-56
2021/12/04 16:25:36;;;;;;;12.98;10.85;;;;;;;21.05;34.61;95071.22;10411063;28;20061;-55
2021/12/04 16:31:14;;;;;;;13.05;10.50;;;;;;;21.05;34.61;95071.22;10406405;28;20491;-59
2021/12/04 16:36:43;;;;;;;13.02;8.93;;;;;;;-146.19;100.00;65364.44;10399122;28;20661;-58
2021/12/04 16:42:03;;;;;;;11.93;8.70;;;;;;;-146.19;100.00;65364.44;10404102;28;20080;-57
2021/12/04 16:47:25;;;;;;;14.35;9.10;;;;;;;21.05;34.61;95071.22;10396934;28;20473;-57
2021/12/04 16:58:25;;;;;;;9.40;7.90;;;;;;;21.05;34.61;95071.22;10396501;28;20072;-56
2021/12/04 17:03:45;;;;;;;10.65;8.07;;;;;;;21.64;37.00;95060.41;10397937;28;20503;-60
2021/12/04 17:09:06;;;;;;;11.13;7.45;;;;;;;21.64;37.33;95059.59;10415367;28;20065;-59
2021/12/04 17:14:29;;;;;;;11.15;7.30;;;;;;;21.66;37.41;95052.66;10411846;28;20049;-53
2021/12/04 17:19:49;;;;;;;10.23;7.07;;;;;;;21.66;37.84;95044.53;10396615;28;20065;-54
2021/12/04 17:25:09;;;;;;;12.20;7.55;;;;;;;21.68;37.84;95041.44;10419825;28;20060;-54
2021/12/04 17:30:28;;;;;;;8.50;6.80;;;;;;;21.68;37.71;95027.91;10416530;28;20057;-54
2021/12/04 17:35:48;;;;;;;13.57;7.07;;;;;;;21.68;38.29;95027.91;10405665;28;20059;-54
2021/12/04 17:41:12;;;;;;;15.07;7.10;;;;;;;21.68;38.77;95036.03;10388684;28;20517;-53
2021/12/04 17:46:32;;;;;;;12.25;7.35;;;;;;;21.65;38.95;95034.84;10396718;28;20052;-54
2021/12/04 17:51:53;;;;;;;13.38;6.72;;;;;;;21.65;39.40;95034.84;10398756;28;20052;-53
2021/12/04 17:57:12;;;;;;;15.18;6.47;;;;;;;21.65;39.79;95034.06;10397057;28;20042;-54
2021/12/04 18:02:32;;;;;;;16.48;6.82;;;;;;;21.64;40.07;95027.09;10393623;28;20049;-52
2021/12/04 18:07:55;;;;;;;14.77;6.97;;;;;;;21.63;40.40;95029.03;10395714;28;20052;-55
2021/12/04 18:13:17;;;;;;;15.23;6.43;;;;;;;21.62;40.38;95023.97;10400972;28;20060;-55
2021/12/04 18:18:37;;;;;;;10.18;6.25;;;;;;;21.62;40.62;95021.28;10398682;28;20049;-54
2021/12/04 18:23:58;;;;;;;11.88;6.10;;;;;;;21.63;40.68;95009.28;10398886;28;20420;-53
2021/12/04 18:29:18;;;;;;;11.75;5.82;;;;;;;21.62;40.66;95011.22;10401944;28;20539;-55
2021/12/04 18:34:39;;;;;;;9.57;5.90;;;;;;;21.62;40.72;95010.44;10399246;28;20064;-54
2021/12/04 18:39:59;;;;;;;11.57;5.95;;;;;;;21.60;40.88;95010.84;10399790;28;20049;-53
2021/12/04 18:45:19;;;;;;;18.05;5.65;;;;;;;21.59;40.98;95011.22;10409950;28;20036;-55
2021/12/04 18:50:40;;;;;;;11.57;5.75;;;;;;;21.58;41.30;95012.34;10401509;28;20612;-55
2021/12/04 18:56:01;;;;;;;11.98;5.80;;;;;;;21.53;39.53;95005.38;10410319;28;20149;-53
2021/12/04 19:01:22;;;;;;;9.88;5.82;;;;;;;21.53;39.53;95005.38;10398751;28;20073;-52
2021/12/04 19:06:42;;;;;;;9.40;5.53;;;;;;;21.50;40.18;95011.53;10413861;28;20037;-53
2021/12/04 19:12:02;;;;;;;8.50;5.47;;;;;;;21.47;40.32;94998.78;10400182;28;20748;-53
2021/12/04 19:17:22;;;;;;;7.75;5.22;;;;;;;21.46;40.58;94995.28;10412221;28;20065;-53
2021/12/04 19:22:45;;;;;;;8.15;4.97;;;;;;;21.46;40.54;94989.06;10413089;28;20069;-55
2021/12/04 19:28:07;;;;;;;8.25;5.43;;;;;;;21.43;40.71;94981.69;10404177;28;20458;-54
2021/12/04 19:34:24;;;;;;;8.18;4.88;;;;;;;21.42;40.99;94975.47;10406268;28;20068;-56
2021/12/04 19:50:46;;;;;;;9.85;5.30;;;;;;;21.39;41.20;94961.94;10390328;28;20046;-55
2021/12/04 19:56:23;;;;;;;6.82;4.68;;;;;;;21.37;41.32;94964.25;10399710;28;20527;-54
2021/12/04 20:01:54;;;;;;;7.90;4.80;;;;;;;21.35;41.41;94967.34;10405399;28;20049;-54
2021/12/04 20:18:18;;;;;;;6.70;4.82;;;;;;;21.29;41.90;94963.44;10427464;28;20037;-53
2021/12/04 20:23:39;;;;;;;6.95;4.25;;;;;;;21.28;41.96;94961.88;10386967;28;20057;-54
2021/12/04 20:29:17;;;;;;;6.05;3.97;;;;;;;21.25;42.00;94962.66;10397533;28;20112;-55
2021/12/04 21:53:17;;;;;;;6.30;3.55;;;;;;;21.04;42.95;94952.47;10386556;28;20132;-55
2021/12/04 22:10:00;;;;;;;4.53;3.75;;;;;;;20.97;42.38;94950.50;10404072;28;20065;-55
2021/12/04 22:59:52;;;;;;;;;;;;;;;20.81;42.67;94979.78;10402526;28;20060;-55
2021/12/04 23:55:12;;;;;;;6.67;4.20;;;;;;;20.61;42.79;94974.63;10374068;28;20084;-52
